Time;durP1;ratioP1;P1;durP2;ratioP2;P2;SDS_P1;SDS_P2;PMS_P1;PMS_P2;Temp;Humidity;BMP_temperature;BMP_pressure;BME280_temperature;BME280_humidity;BME280_pressure;Samples;Min_cycle;Max_cycle;Signal;HPM_P1;HPM_P2
2023/01/22 00:01:08;;;;;;;14.43;7.38;;;;;;;;;;5098427;28;20077;-86
2023/01/22 00:03:35;;;;;;;16.02;7.63;;;;;;;;;;5080344;28;20377;-87
2023/01/22 00:06:01;;;;;;;15.10;7.60;;;;;;;;;;5098439;28;20047;-85
2023/01/22 00:08:27;;;;;;;16.02;7.18;;;;;;;;;;5080851;28;20043;-87
2023/01/22 00:10:54;;;;;;;15.48;7.22;;;;;;;;;;5098978;28;20038;-88
2023/01/22 00:13:21;;;;;;;16.50;8.13;;;;;;;;;;5063948;28;20031;-84
2023/01/22 00:15:47;;;;;;;15.45;7.63;;;;;;;;;;5097845;28;20035;-87
2023/01/22 00:18:13;;;;;;;16.48;7.60;;;;;;;;;;5099459;28;20384;-87
2023/01/22 00:20:38;;;;;;;15.88;7.68;;;;;;;;;;5080025;28;20055;-87
2023/01/22 00:23:04;;;;;;;16.88;7.88;;;;;;;;;;5098045;28;20500;-86
2023/01/22 00:25:30;;;;;;;15.73;7.70;;;;;;;;;;5096859;28;20496;-87
2023/01/22 00:27:55;;;;;;;16.10;7.88;;;;;;;;;;5080292;28;20373;-87
2023/01/22 00:30:21;;;;;;;14.70;7.43;;;;;;;;;;5079273;28;20046;-85
2023/01/22 00:32:46;;;;;;;14.65;7.78;;;;;;;;;;5079466;28;20048;-87
2023/01/22 00:35:12;;;;;;;16.90;7.75;;;;;;;;;;5096448;28;20051;-85
2023/01/22 00:37:37;;;;;;;14.90;7.75;;;;;;;;;;5096753;28;20119;-85
2023/01/22 00:40:04;;;;;;;15.38;7.47;;;;;;;;;;5080013;28;20032;-84
2023/01/22 00:42:30;;;;;;;15.40;7.80;;;;;;;;;;5107306;28;20043;-87
2023/01/22 00:44:55;;;;;;;14.38;7.68;;;;;;;;;;5098090;28;20040;-85
2023/01/22 00:47:21;;;;;;;15.25;7.78;;;;;;;;;;5079199;28;20036;-86
2023/01/22 00:49:46;;;;;;;16.02;8.45;;;;;;;;;;5097614;28;20062;-86
2023/01/22 00:52:12;;;;;;;14.77;7.85;;;;;;;;;;5078675;28;20052;-86
2023/01/22 00:54:37;;;;;;;16.63;7.78;;;;;;;;;;5079057;28;20115;-86
2023/01/22 00:57:03;;;;;;;16.05;7.60;;;;;;;;;;5079398;28;20080;-86
2023/01/22 00:59:29;;;;;;;15.80;7.97;;;;;;;;;;5095802;28;20077;-85
2023/01/22 01:01:54;;;;;;;15.90;8.13;;;;;;;;;;5078459;28;20040;-86
2023/01/22 01:04:20;;;;;;;14.98;7.70;;;;;;;;;;5097763;28;20036;-87
2023/01/22 01:06:47;;;;;;;15.55;8.07;;;;;;;;;;5078638;28;20036;-87
2023/01/22 01:09:13;;;;;;;15.93;8.45;;;;;;;;;;5097916;28;20036;-86
2023/01/22 01:11:38;;;;;;;16.27;8.57;;;;;;;;;;5078419;28;20123;-86
2023/01/22 01:14:04;;;;;;;15.52;8.00;;;;;;;;;;5095346;28;20035;-86
2023/01/22 01:16:30;;;;;;;16.08;8.27;;;;;;;;;;5079804;28;20043;-86
2023/01/22 01:19:00;;;;;;;13.82;7.55;;;;;;;;;;5079216;28;20031;-86
2023/01/22 01:21:26;;;;;;;15.70;8.05;;;;;;;;;;5095648;28;20117;-85
2023/01/22 01:23:53;;;;;;;16.50;7.80;;;;;;;;;;5096848;28;20043;-85
2023/01/22 01:26:19;;;;;;;15.20;8.20;;;;;;;;;;5078289;28;20400;-86
2023/01/22 01:28:45;;;;;;;17.00;8.60;;;;;;;;;;5079150;28;20042;-86
2023/01/22 01:31:12;;;;;;;18.02;8.15;;;;;;;;;;5096915;28;20036;-86
2023/01/22 01:33:38;;;;;;;16.00;8.40;;;;;;;;;;5097268;28;20032;-85
2023/01/22 01:36:06;;;;;;;18.48;8.38;;;;;;;;;;5097235;28;20039;-86
2023/01/22 01:38:32;;;;;;;18.50;9.02;;;;;;;;;;5083174;28;20035;-86
2023/01/22 01:40:58;;;;;;;16.48;8.40;;;;;;;;;;5084008;28;20491;-86
2023/01/22 01:43:25;;;;;;;16.25;8.32;;;;;;;;;;5100130;28;20088;-86
2023/01/22 01:45:50;;;;;;;17.58;8.85;;;;;;;;;;5100666;28;20040;-85
2023/01/22 01:48:25;;;;;;;17.63;8.38;;;;;;;;;;5106044;28;20040;-87
2023/01/22 01:51:11;;;;;;;16.08;8.00;;;;;;;;;;5080810;28;20028;-86
2023/01/22 01:53:39;;;;;;;17.48;8.45;;;;;;;;;;5080189;28;20036;-86
2023/01/22 01:56:11;;;;;;;19.60;8.68;;;;;;;;;;5080251;28;20032;-86
2023/01/22 01:58:38;;;;;;;15.77;8.15;;;;;;;;;;5079854;28;20032;-86
2023/01/22 02:01:10;;;;;;;16.75;8.45;;;;;;;;;;5079626;28;20039;-86
2023/01/22 02:03:36;;;;;;;16.48;8.50;;;;;;;;;;5078778;28;20063;-85
2023/01/22 02:06:02;;;;;;;16.77;7.93;;;;;;;;;;5078166;28;20036;-85
2023/01/22 02:08:28;;;;;;;17.10;8.40;;;;;;;;;;5079055;28;20116;-85
2023/01/22 02:10:55;;;;;;;15.65;7.75;;;;;;;;;;5078621;28;20122;-85
2023/01/22 02:13:26;;;;;;;16.25;8.65;;;;;;;;;;5096965;28;20523;-86
2023/01/22 02:15:52;;;;;;;14.60;7.53;;;;;;;;;;5095474;28;20032;-85
2023/01/22 02:18:17;;;;;;;17.65;8.10;;;;;;;;;;5078536;28;20040;-85
2023/01/22 02:20:58;;;;;;;15.52;8.35;;;;;;;;;;5096513;28;20032;-87
2023/01/22 02:23:24;;;;;;;16.45;8.35;;;;;;;;;;5097482;28;20035;-85
2023/01/22 02:25:51;;;;;;;13.63;6.90;;;;;;;;;;5078472;28;20047;-85
2023/01/22 02:28:17;;;;;;;15.55;8.40;;;;;;;;;;5096574;28;20312;-87
2023/01/22 02:30:43;;;;;;;16.95;7.97;;;;;;;;;;5077539;28;20058;-86
2023/01/22 02:33:11;;;;;;;17.52;8.80;;;;;;;;;;5077707;28;20123;-86
2023/01/22 02:35:39;;;;;;;18.25;8.70;;;;;;;;;;5077446;28;20035;-86
2023/01/22 02:38:05;;;;;;;17.20;8.70;;;;;;;;;;5077966;28;20032;-85
2023/01/22 02:40:33;;;;;;;17.83;9.35;;;;;;;;;;5077658;28;20044;-86
2023/01/22 02:42:59;;;;;;;17.35;8.57;;;;;;;;;;5077767;28;20036;-86
2023/01/22 02:45:25;;;;;;;19.23;8.68;;;;;;;;;;5077107;28;20028;-85
2023/01/22 02:47:51;;;;;;;16.52;8.75;;;;;;;;;;5077378;28;20032;-85
2023/01/22 02:50:16;;;;;;;18.13;8.80;;;;;;;;;;5077153;28;20043;-85
2023/01/22 02:52:42;;;;;;;18.33;8.98;;;;;;;;;;5086832;28;20040;-87
2023/01/22 02:55:08;;;;;;;17.13;8.48;;;;;;;;;;5076617;28;20488;-87
2023/01/22 02:57:33;;;;;;;16.27;8.48;;;;;;;;;;5076836;28;20040;-87
2023/01/22 03:00:00;;;;;;;18.35;8.63;;;;;;;;;;5094261;28;20101;-87
2023/01/22 03:02:25;;;;;;;18.95;8.95;;;;;;;;;;5076797;28;20036;-87
2023/01/22 03:05:02;;;;;;;16.13;7.85;;;;;;;;;;5076772;28;20080;-87
2023/01/22 03:07:43;;;;;;;16.02;8.05;;;;;;;;;;5095109;28;20040;-87
2023/01/22 03:10:17;;;;;;;15.48;8.38;;;;;;;;;;5076200;28;20123;-87
2023/01/22 03:21:16;;;;;;;15.80;7.85;;;;;;;;;;5080355;28;20032;-87
2023/01/22 03:23:44;;;;;;;16.13;8.40;;;;;;;;;;5098804;28;20510;-85
2023/01/22 03:26:10;;;;;;;17.23;9.00;;;;;;;;;;5080358;28;20036;-86
2023/01/22 03:28:35;;;;;;;15.68;8.00;;;;;;;;;;5080322;28;20024;-85
2023/01/22 03:31:01;;;;;;;17.02;9.07;;;;;;;;;;5080525;28;20036;-87
2023/01/22 03:33:29;;;;;;;20.10;9.30;;;;;;;;;;5097554;28;20105;-85
2023/01/22 03:36:00;;;;;;;21.83;9.98;;;;;;;;;;5098569;28;20495;-86
2023/01/22 03:38:25;;;;;;;18.30;9.30;;;;;;;;;;5080254;28;20034;-86
2023/01/22 03:40:52;;;;;;;16.88;8.60;;;;;;;;;;5080121;28;20036;-86
2023/01/22 03:43:20;;;;;;;16.95;8.68;;;;;;;;;;5080472;28;20415;-86
2023/01/22 03:45:46;;;;;;;17.65;8.70;;;;;;;;;;5080371;28;20503;-86
2023/01/22 03:48:14;;;;;;;15.73;7.97;;;;;;;;;;5064187;28;20158;-86
2023/01/22 03:50:40;;;;;;;15.70;8.15;;;;;;;;;;5080685;28;20062;-86
2023/01/22 03:53:05;;;;;;;15.45;8.48;;;;;;;;;;5081261;28;20028;-86
2023/01/22 03:55:32;;;;;;;17.33;7.95;;;;;;;;;;5080997;28;20039;-85
2023/01/22 03:57:57;;;;;;;17.52;8.88;;;;;;;;;;5089339;28;20071;-86
2023/01/22 04:00:23;;;;;;;17.55;9.18;;;;;;;;;;5079583;28;20045;-87
2023/01/22 04:02:49;;;;;;;19.17;9.25;;;;;;;;;;5098508;28;20047;-86
2023/01/22 04:05:20;;;;;;;17.17;8.40;;;;;;;;;;5079191;28;20032;-87
2023/01/22 04:07:48;;;;;;;15.55;8.52;;;;;;;;;;5079551;28;20053;-86
2023/01/22 04:10:14;;;;;;;16.05;8.70;;;;;;;;;;5079968;28;20032;-86
2023/01/22 04:12:40;;;;;;;16.48;8.00;;;;;;;;;;5095700;28;20047;-87
2023/01/22 04:15:07;;;;;;;14.82;7.85;;;;;;;;;;5079181;28;20035;-86
2023/01/22 04:17:33;;;;;;;16.25;8.05;;;;;;;;;;5079810;28;20035;-87
2023/01/22 04:20:10;;;;;;;17.27;8.60;;;;;;;;;;5079337;28;20365;-86
2023/01/22 04:22:42;;;;;;;15.63;8.48;;;;;;;;;;5079882;28;20115;-86
2023/01/22 04:25:09;;;;;;;16.67;8.27;;;;;;;;;;5078527;28;20032;-86
2023/01/22 04:27:36;;;;;;;14.05;7.40;;;;;;;;;;5079169;28;20058;-86
2023/01/22 04:30:06;;;;;;;17.05;8.45;;;;;;;;;;5104709;22;20040;-83
2023/01/22 04:32:32;;;;;;;15.50;7.80;;;;;;;;;;5098885;28;20407;-83
2023/01/22 04:35:21;;;;;;;15.20;7.95;;;;;;;;;;5098423;28;20031;-82
2023/01/22 04:37:53;;;;;;;16.98;8.45;;;;;;;;;;5098545;28;20039;-83
2023/01/22 04:40:19;;;;;;;14.93;8.18;;;;;;;;;;5098534;28;20032;-82
2023/01/22 04:42:47;;;;;;;12.95;7.25;;;;;;;;;;5099055;28;20061;-82
2023/01/22 04:45:13;;;;;;;10.43;5.85;;;;;;;;;;5098275;28;20035;-82
2023/01/22 04:47:44;;;;;;;12.68;6.57;;;;;;;;;;5098437;28;20559;-82
2023/01/22 04:50:16;;;;;;;11.88;6.53;;;;;;;;;;5098317;28;20028;-82
2023/01/22 04:52:41;;;;;;;11.50;6.68;;;;;;;;;;5098446;28;20434;-82
2023/01/22 04:55:08;;;;;;;12.55;7.00;;;;;;;;;;5116540;28;20538;-82
2023/01/22 04:57:44;;;;;;;13.15;6.97;;;;;;;;;;5083418;28;20402;-83
2023/01/22 05:00:10;;;;;;;13.18;7.13;;;;;;;;;;5098529;28;20024;-82
2023/01/22 05:02:36;;;;;;;13.48;7.20;;;;;;;;;;5067520;28;20081;-82
2023/01/22 05:05:03;;;;;;;11.50;6.13;;;;;;;;;;5081434;28;20442;-83
2023/01/22 05:07:29;;;;;;;10.65;5.90;;;;;;;;;;5098283;28;20085;-83
2023/01/22 05:09:54;;;;;;;11.90;6.28;;;;;;;;;;5098046;28;20028;-82
2023/01/22 05:12:20;;;;;;;15.27;7.10;;;;;;;;;;5097465;28;20671;-82
2023/01/22 05:14:47;;;;;;;14.95;6.65;;;;;;;;;;5080919;28;20076;-82
2023/01/22 05:17:12;;;;;;;14.15;7.25;;;;;;;;;;5097860;28;20027;-82
2023/01/22 05:19:38;;;;;;;13.15;6.43;;;;;;;;;;5097218;28;20030;-82
2023/01/22 05:22:09;;;;;;;12.32;6.00;;;;;;;;;;5098046;28;20069;-83
2023/01/22 05:24:35;;;;;;;12.88;6.55;;;;;;;;;;5080746;28;20115;-82
2023/01/22 05:27:01;;;;;;;12.80;6.18;;;;;;;;;;5081852;28;20434;-82
2023/01/22 05:29:33;;;;;;;12.10;6.55;;;;;;;;;;5097622;28;20049;-82
2023/01/22 05:32:11;;;;;;;11.63;5.88;;;;;;;;;;5097516;28;20039;-83
2023/01/22 05:34:43;;;;;;;11.30;5.97;;;;;;;;;;5097296;28;20034;-82
2023/01/22 05:37:10;;;;;;;10.93;5.50;;;;;;;;;;5097185;28;20063;-83
2023/01/22 05:39:36;;;;;;;11.13;5.65;;;;;;;;;;5097063;28;20040;-83
2023/01/22 05:42:04;;;;;;;9.82;5.35;;;;;;;;;;5097184;28;20031;-82
2023/01/22 05:44:29;;;;;;;9.70;5.50;;;;;;;;;;5080103;28;20088;-82
2023/01/22 05:46:55;;;;;;;10.05;5.63;;;;;;;;;;5096951;28;20035;-83
2023/01/22 05:49:32;;;;;;;9.52;5.07;;;;;;;;;;5097026;28;20039;-82
2023/01/22 05:51:58;;;;;;;10.48;5.15;;;;;;;;;;5096808;28;20039;-82
2023/01/22 05:54:23;;;;;;;9.68;5.50;;;;;;;;;;5114732;28;20034;-83
2023/01/22 05:56:50;;;;;;;10.20;5.28;;;;;;;;;;5096613;28;20031;-82
2023/01/22 05:59:16;;;;;;;10.93;5.43;;;;;;;;;;5096194;28;20037;-82
2023/01/22 06:01:47;;;;;;;10.60;5.55;;;;;;;;;;5096269;28;20039;-82
2023/01/22 06:04:12;;;;;;;8.93;5.10;;;;;;;;;;5095945;28;20032;-82
2023/01/22 06:06:38;;;;;;;10.43;5.40;;;;;;;;;;5096139;28;20028;-83
2023/01/22 06:09:04;;;;;;;9.32;4.68;;;;;;;;;;5079448;28;20046;-82
2023/01/22 06:11:34;;;;;;;8.82;4.82;;;;;;;;;;5096332;28;20039;-81
2023/01/22 06:13:59;;;;;;;9.13;4.80;;;;;;;;;;5096099;28;20080;-82
2023/01/22 06:16:25;;;;;;;9.05;4.95;;;;;;;;;;5095946;28;20032;-82
2023/01/22 06:19:06;;;;;;;8.75;4.68;;;;;;;;;;5096185;28;20083;-81
2023/01/22 06:21:42;;;;;;;8.73;4.72;;;;;;;;;;5096869;28;20066;-82
2023/01/22 06:24:08;;;;;;;8.85;4.93;;;;;;;;;;5096385;28;20054;-82
2023/01/22 06:26:34;;;;;;;9.02;4.72;;;;;;;;;;5096289;28;20031;-82
2023/01/22 06:29:00;;;;;;;8.95;4.50;;;;;;;;;;5096080;28;20462;-82
2023/01/22 06:31:27;;;;;;;8.30;4.93;;;;;;;;;;5095530;28;20035;-81
2023/01/22 06:33:54;;;;;;;7.75;4.43;;;;;;;;;;5096554;28;20037;-82
2023/01/22 06:36:19;;;;;;;8.75;4.45;;;;;;;;;;5096443;28;20034;-82
2023/01/22 06:38:45;;;;;;;9.07;4.88;;;;;;;;;;5096782;28;20028;-82
2023/01/22 06:41:14;;;;;;;10.35;4.53;;;;;;;;;;5096307;28;20038;-81
2023/01/22 06:43:42;;;;;;;8.35;4.40;;;;;;;;;;5096662;28;20031;-81
2023/01/22 06:46:10;;;;;;;8.38;4.72;;;;;;;;;;5096317;28;20380;-82
2023/01/22 06:48:57;;;;;;;10.35;4.72;;;;;;;;;;5099887;28;20039;-81
2023/01/22 06:51:24;;;;;;;8.25;4.38;;;;;;;;;;5114889;28;20035;-82
2023/01/22 06:53:49;;;;;;;9.23;4.63;;;;;;;;;;5076199;28;20035;-83
2023/01/22 06:56:17;;;;;;;9.05;4.50;;;;;;;;;;5074779;28;20032;-81
2023/01/22 06:58:43;;;;;;;9.10;4.40;;;;;;;;;;5075427;28;20388;-80
2023/01/22 07:01:09;;;;;;;8.40;4.32;;;;;;;;;;5093810;28;20031;-81
2023/01/22 07:03:34;;;;;;;9.30;4.35;;;;;;;;;;5093582;28;20408;-81
2023/01/22 07:06:02;;;;;;;8.88;4.70;;;;;;;;;;5076097;28;20162;-79
2023/01/22 07:08:29;;;;;;;10.60;4.80;;;;;;;;;;5113916;28;20101;-79
2023/01/22 07:10:54;;;;;;;10.85;4.40;;;;;;;;;;5094975;28;20096;-80
2023/01/22 07:13:20;;;;;;;9.10;4.78;;;;;;;;;;5111983;28;20031;-79
2023/01/22 07:15:46;;;;;;;9.90;4.97;;;;;;;;;;5093675;28;20118;-79
2023/01/22 07:18:13;;;;;;;8.77;4.50;;;;;;;;;;5112275;28;20153;-80
2023/01/22 07:20:40;;;;;;;9.30;5.30;;;;;;;;;;5097931;28;20031;-76
2023/01/22 07:23:06;;;;;;;11.13;5.03;;;;;;;;;;5092186;28;20473;-79
2023/01/22 07:25:31;;;;;;;11.00;5.22;;;;;;;;;;5092017;28;20479;-80
2023/01/22 07:27:59;;;;;;;11.18;6.20;;;;;;;;;;5093310;28;20028;-81
2023/01/22 07:30:24;;;;;;;12.95;6.25;;;;;;;;;;5077432;28;20036;-81
2023/01/22 07:32:50;;;;;;;23.38;9.50;;;;;;;;;;5101780;28;20118;-80
2023/01/22 07:35:16;;;;;;;29.17;11.43;;;;;;;;;;5092695;28;20792;-81
2023/01/22 07:37:42;;;;;;;29.45;10.88;;;;;;;;;;5096318;28;20177;-81
2023/01/22 07:40:08;;;;;;;16.15;6.68;;;;;;;;;;5094483;28;20491;-82
2023/01/22 07:42:36;;;;;;;11.32;5.78;;;;;;;;;;5094343;28;20032;-80
2023/01/22 07:45:02;;;;;;;9.95;5.15;;;;;;;;;;5094611;28;20046;-81
2023/01/22 07:47:28;;;;;;;11.10;5.45;;;;;;;;;;5094285;28;20072;-81
2023/01/22 07:49:53;;;;;;;9.60;5.40;;;;;;;;;;5101588;28;20034;-81
2023/01/22 07:52:19;;;;;;;12.25;5.90;;;;;;;;;;5105439;28;20039;-81
2023/01/22 07:54:44;;;;;;;10.52;5.75;;;;;;;;;;5084478;28;20510;-81
2023/01/22 07:57:14;;;;;;;12.10;5.88;;;;;;;;;;5114284;28;20039;-80
2023/01/22 07:59:40;;;;;;;10.88;5.40;;;;;;;;;;5107467;28;20024;-80
2023/01/22 08:02:05;;;;;;;10.57;5.88;;;;;;;;;;5113159;28;20027;-80
2023/01/22 08:04:30;;;;;;;15.23;7.35;;;;;;;;;;5122197;28;20036;-81
2023/01/22 08:06:56;;;;;;;13.50;6.85;;;;;;;;;;5080641;28;20384;-79
2023/01/22 08:09:24;;;;;;;9.98;5.57;;;;;;;;;;5117149;28;20038;-80
2023/01/22 08:11:50;;;;;;;10.95;6.10;;;;;;;;;;5106408;28;20035;-79
2023/01/22 08:14:16;;;;;;;21.13;10.35;;;;;;;;;;5099897;28;20039;-80
2023/01/22 08:16:44;;;;;;;15.52;8.20;;;;;;;;;;5079088;28;20032;-80
2023/01/22 08:19:10;;;;;;;42.70;17.35;;;;;;;;;;5079892;28;20028;-80
2023/01/22 08:21:35;;;;;;;27.02;12.77;;;;;;;;;;5078912;28;20077;-79
2023/01/22 08:24:01;;;;;;;32.05;14.68;;;;;;;;;;5079484;28;20504;-81
2023/01/22 08:26:26;;;;;;;33.38;14.20;;;;;;;;;;5096036;28;20408;-81
2023/01/22 08:28:52;;;;;;;19.67;10.73;;;;;;;;;;5096902;28;20111;-81
2023/01/22 08:31:17;;;;;;;61.00;32.70;;;;;;;;;;5096562;28;20051;-82
2023/01/22 08:33:43;;;;;;;20.13;10.18;;;;;;;;;;5096556;28;20043;-81
2023/01/22 08:36:08;;;;;;;11.15;6.40;;;;;;;;;;5078458;28;20024;-82
2023/01/22 08:38:34;;;;;;;14.70;6.97;;;;;;;;;;5096770;28;20377;-82
2023/01/22 08:40:59;;;;;;;10.32;6.40;;;;;;;;;;5096233;28;20032;-82
2023/01/22 08:43:25;;;;;;;12.85;6.78;;;;;;;;;;5078132;28;20032;-82
2023/01/22 08:45:50;;;;;;;13.68;6.93;;;;;;;;;;5078014;28;20354;-83
2023/01/22 08:48:16;;;;;;;15.80;7.45;;;;;;;;;;5091356;28;20044;-82
2023/01/22 08:50:42;;;;;;;14.80;7.47;;;;;;;;;;5097071;28;20727;-83
2023/01/22 08:53:07;;;;;;;17.92;8.90;;;;;;;;;;5079140;28;20067;-83
2023/01/22 08:55:33;;;;;;;12.30;6.82;;;;;;;;;;5078617;28;20040;-83
2023/01/22 08:57:58;;;;;;;11.95;6.43;;;;;;;;;;5096875;28;20019;-82
2023/01/22 09:00:24;;;;;;;10.88;6.00;;;;;;;;;;5096895;28;20028;-83
2023/01/22 09:02:50;;;;;;;13.90;6.28;;;;;;;;;;5097335;28;20036;-86
2023/01/22 09:05:15;;;;;;;12.35;6.18;;;;;;;;;;5096541;28;20062;-83
2023/01/22 09:07:41;;;;;;;12.48;6.97;;;;;;;;;;5096355;28;20043;-82
2023/01/22 09:10:11;;;;;;;15.48;7.70;;;;;;;;;;5077622;28;20040;-83
2023/01/22 09:12:36;;;;;;;19.13;10.45;;;;;;;;;;5076876;28;20123;-82
2023/01/22 09:15:02;;;;;;;17.17;9.00;;;;;;;;;;5097105;28;20047;-81
2023/01/22 09:17:28;;;;;;;13.82;7.15;;;;;;;;;;5095604;28;20062;-81
2023/01/22 09:19:53;;;;;;;16.08;8.18;;;;;;;;;;5095415;28;20034;-83
2023/01/22 09:22:19;;;;;;;15.27;8.32;;;;;;;;;;5095456;28;20502;-81
2023/01/22 09:24:45;;;;;;;10.77;6.15;;;;;;;;;;5094996;28;20036;-82
2023/01/22 09:27:12;;;;;;;9.98;5.72;;;;;;;;;;5095626;28;20051;-82
2023/01/22 09:29:37;;;;;;;10.40;5.80;;;;;;;;;;5094945;28;20098;-82
2023/01/22 09:32:03;;;;;;;12.68;6.85;;;;;;;;;;5095328;28;20064;-82
2023/01/22 09:34:29;;;;;;;10.90;6.32;;;;;;;;;;5094622;28;20028;-82
2023/01/22 09:36:54;;;;;;;11.60;6.45;;;;;;;;;;5095322;28;20050;-81
2023/01/22 09:39:20;;;;;;;10.90;5.88;;;;;;;;;;5077106;28;20039;-82
2023/01/22 09:41:48;;;;;;;8.93;5.20;;;;;;;;;;5094876;28;20112;-82
2023/01/22 09:44:21;;;;;;;11.30;5.65;;;;;;;;;;5076526;28;20040;-81
2023/01/22 09:46:57;;;;;;;11.23;5.97;;;;;;;;;;5100475;28;20397;-82
2023/01/22 09:49:28;;;;;;;9.10;5.22;;;;;;;;;;5077191;28;20032;-82
2023/01/22 09:51:59;;;;;;;12.30;6.40;;;;;;;;;;5094647;28;20051;-80
2023/01/22 09:54:27;;;;;;;10.90;5.90;;;;;;;;;;5094691;28;20032;-81
2023/01/22 09:56:56;;;;;;;12.93;6.72;;;;;;;;;;5059757;28;20138;-81
2023/01/22 09:59:25;;;;;;;10.32;6.22;;;;;;;;;;5102860;28;20027;-80
2023/01/22 10:01:57;;;;;;;11.00;6.15;;;;;;;;;;5114412;28;20089;-81
2023/01/22 10:04:30;;;;;;;12.45;6.55;;;;;;;;;;5079786;28;20039;-80
2023/01/22 10:06:58;;;;;;;11.10;6.75;;;;;;;;;;5115019;28;20032;-81
2023/01/22 10:09:29;;;;;;;10.45;6.57;;;;;;;;;;5114830;28;20035;-81
2023/01/22 10:11:57;;;;;;;10.55;6.15;;;;;;;;;;5097058;28;20071;-80
2023/01/22 10:14:26;;;;;;;10.40;6.05;;;;;;;;;;5096153;28;20063;-81
2023/01/22 10:16:52;;;;;;;9.77;5.65;;;;;;;;;;5096399;28;20114;-81
2023/01/22 10:19:26;;;;;;;12.00;5.72;;;;;;;;;;5114917;28;20074;-81
2023/01/22 10:21:59;;;;;;;10.52;5.80;;;;;;;;;;5114993;28;20031;-81
2023/01/22 10:24:25;;;;;;;9.57;5.80;;;;;;;;;;5113668;28;20403;-82
2023/01/22 10:26:53;;;;;;;10.45;6.15;;;;;;;;;;5114348;28;20546;-80
2023/01/22 10:29:30;;;;;;;12.52;7.32;;;;;;;;;;5114610;28;20027;-81
2023/01/22 10:31:58;;;;;;;12.68;6.72;;;;;;;;;;5122335;22;20181;-86
2023/01/22 10:34:31;;;;;;;11.15;6.38;;;;;;;;;;5095623;28;20039;-84
2023/01/22 10:37:02;;;;;;;8.50;5.22;;;;;;;;;;5097104;28;20039;-86
2023/01/22 10:39:38;;;;;;;11.23;6.25;;;;;;;;;;5096558;28;20058;-86
2023/01/22 10:42:04;;;;;;;12.15;7.18;;;;;;;;;;5092945;28;20035;-85
2023/01/22 10:44:29;;;;;;;10.43;6.65;;;;;;;;;;5098022;28;20110;-85
2023/01/22 10:47:06;;;;;;;11.90;6.18;;;;;;;;;;5097854;28;20545;-85
2023/01/22 10:49:32;;;;;;;12.75;6.63;;;;;;;;;;5097790;28;20031;-85
2023/01/22 10:52:01;;;;;;;9.32;5.82;;;;;;;;;;5116293;28;20038;-85
2023/01/22 10:54:42;;;;;;;10.45;5.78;;;;;;;;;;5097852;28;20505;-85
2023/01/22 10:57:26;;;;;;;11.73;6.30;;;;;;;;;;5098384;28;20134;-85
2023/01/22 11:00:11;;;;;;;;;;;;;;;;;;5116961;28;20037;-82
2023/01/22 11:02:41;;;;;;;11.98;6.72;;;;;;;;;;5063898;28;19912;-85
2023/01/22 11:05:32;;;;;;;12.13;6.97;;;;;;;;;;5096851;28;20070;-85
2023/01/22 11:08:10;;;;;;;14.07;7.97;;;;;;;;;;5097803;28;20119;-84
2023/01/22 11:10:55;;;;;;;12.63;7.20;;;;;;;;;;5079927;28;20069;-84
2023/01/22 11:13:23;;;;;;;13.25;7.05;;;;;;;;;;5097297;28;20028;-83
2023/01/22 11:15:56;;;;;;;12.70;7.28;;;;;;;;;;5111568;28;20059;-85
2023/01/22 11:18:33;;;;;;;14.25;7.25;;;;;;;;;;5117182;28;20027;-85
2023/01/22 11:20:59;;;;;;;11.90;6.85;;;;;;;;;;5097559;28;20036;-86
2023/01/22 11:23:52;;;;;;;12.27;7.63;;;;;;;;;;5115868;28;20039;-87
2023/01/22 11:26:47;;;;;;;17.65;9.63;;;;;;;;;;5115554;28;20027;-87
2023/01/22 11:29:31;;;;;;;13.88;7.90;;;;;;;;;;5098015;28;20063;-85
2023/01/22 11:32:18;;;;;;;14.70;9.10;;;;;;;;;;5098957;28;20110;-85
2023/01/22 11:34:46;;;;;;;12.93;7.88;;;;;;;;;;5113971;28;20039;-86
2023/01/22 11:37:14;;;;;;;60.45;25.00;;;;;;;;;;5091160;28;20073;-84
2023/01/22 11:39:43;;;;;;;45.35;22.10;;;;;;;;;;5091115;28;20081;-88
2023/01/22 11:42:23;;;;;;;23.75;13.23;;;;;;;;;;5099974;28;20035;-85
2023/01/22 11:44:49;;;;;;;16.30;9.52;;;;;;;;;;5117119;28;20439;-86
2023/01/22 11:47:14;;;;;;;14.85;9.30;;;;;;;;;;5099808;28;20023;-85
2023/01/22 11:50:04;;;;;;;35.22;21.80;;;;;;;;;;5100475;28;20035;-87
2023/01/22 11:52:45;;;;;;;31.85;19.33;;;;;;;;;;5120954;28;20031;-88
2023/01/22 11:55:44;;;;;;;15.10;8.73;;;;;;;;;;5105355;28;20053;-87
2023/01/22 11:58:22;;;;;;;31.63;17.58;;;;;;;;;;5088255;28;20035;-88
2023/01/22 12:01:06;;;;;;;14.10;8.20;;;;;;;;;;5087833;28;20051;-87
2023/01/22 12:04:09;;;;;;;12.38;7.47;;;;;;;;;;5121319;28;20061;-86
2023/01/22 12:06:37;;;;;;;16.58;8.02;;;;;;;;;;5121499;28;20069;-86
2023/01/22 12:09:05;;;;;;;12.82;7.30;;;;;;;;;;5119784;28;20031;-84
2023/01/22 12:11:49;;;;;;;13.73;7.18;;;;;;;;;;5102262;28;20404;-86
2023/01/22 12:14:38;;;;;;;11.25;7.00;;;;;;;;;;5100913;28;20271;-86
2023/01/22 12:17:34;;;;;;;16.67;9.57;;;;;;;;;;5119866;28;20039;-86
2023/01/22 12:20:24;;;;;;;14.57;8.88;;;;;;;;;;5118337;28;20480;-86
2023/01/22 12:22:56;;;;;;;14.52;8.10;;;;;;;;;;5084442;28;20040;-84
2023/01/22 12:25:48;;;;;;;16.50;10.02;;;;;;;;;;5118905;28;20035;-84
2023/01/22 12:28:18;;;;;;;15.05;8.50;;;;;;;;;;5119386;28;20028;-84
2023/01/22 12:31:01;;;;;;;16.88;10.40;;;;;;;;;;5100330;28;20044;-85
2023/01/22 12:33:30;;;;;;;19.17;10.20;;;;;;;;;;5101264;28;20118;-85
2023/01/22 12:36:00;;;;;;;25.17;12.25;;;;;;;;;;5100567;28;20031;-86
2023/01/22 12:38:47;;;;;;;14.55;8.57;;;;;;;;;;5126484;28;20105;-85
2023/01/22 12:41:55;;;;;;;19.60;12.10;;;;;;;;;;5118247;28;20038;-86
2023/01/22 12:44:39;;;;;;;13.18;7.88;;;;;;;;;;5118605;28;20044;-86
2023/01/22 12:47:23;;;;;;;24.63;14.95;;;;;;;;;;5099947;28;20042;-86
2023/01/22 12:49:51;;;;;;;14.63;8.68;;;;;;;;;;5100501;28;20047;-86
2023/01/22 12:52:27;;;;;;;17.75;10.00;;;;;;;;;;5100547;28;20551;-86
2023/01/22 12:54:54;;;;;;;14.95;9.02;;;;;;;;;;5100128;28;20035;-87
2023/01/22 12:57:19;;;;;;;13.05;7.22;;;;;;;;;;5117236;28;20036;-85
2023/01/22 12:59:56;;;;;;;15.32;9.20;;;;;;;;;;5080785;28;20557;-89
2023/01/22 13:02:37;;;;;;;16.30;9.23;;;;;;;;;;5098960;28;20036;-87
2023/01/22 13:05:16;;;;;;;22.52;11.38;;;;;;;;;;5098100;28;20044;-87
2023/01/22 13:07:42;;;;;;;19.35;10.18;;;;;;;;;;5098175;28;20036;-86
2023/01/22 13:10:28;;;;;;;17.73;9.15;;;;;;;;;;5079805;28;20046;-86
2023/01/22 13:13:13;;;;;;;18.13;9.98;;;;;;;;;;5078032;28;20032;-84
2023/01/22 13:15:40;;;;;;;16.25;9.38;;;;;;;;;;5094908;28;20131;-85
2023/01/22 13:18:18;;;;;;;24.02;11.73;;;;;;;;;;5060936;28;20034;-86
2023/01/22 13:21:04;;;;;;;18.35;10.20;;;;;;;;;;5076913;28;20031;-86
2023/01/22 13:23:32;;;;;;;25.42;12.35;;;;;;;;;;5095336;28;20504;-86
2023/01/22 13:25:58;;;;;;;16.67;10.00;;;;;;;;;;5077090;28;20032;-86
2023/01/22 13:28:25;;;;;;;20.42;10.75;;;;;;;;;;5078661;28;20028;-86
2023/01/22 13:30:56;;;;;;;18.60;9.93;;;;;;;;;;5107117;28;20040;-86
2023/01/22 13:33:22;;;;;;;26.27;12.80;;;;;;;;;;5101392;28;20605;-85
2023/01/22 13:35:48;;;;;;;32.75;15.30;;;;;;;;;;5100867;28;20057;-87
2023/01/22 13:38:21;;;;;;;29.45;13.73;;;;;;;;;;5084500;28;20505;-85
2023/01/22 13:40:49;;;;;;;35.80;16.00;;;;;;;;;;5101232;28;20368;-84
2023/01/22 13:43:18;;;;;;;33.25;15.23;;;;;;;;;;5106355;28;20055;-85
2023/01/22 13:45:44;;;;;;;18.15;9.85;;;;;;;;;;5117060;28;20095;-85
2023/01/22 13:48:15;;;;;;;18.08;9.35;;;;;;;;;;5098660;28;20035;-85
2023/01/22 13:50:45;;;;;;;100.18;35.83;;;;;;;;;;5081351;28;20039;-83
2023/01/22 13:53:32;;;;;;;186.73;79.95;;;;;;;;;;5098961;28;20080;-86
2023/01/22 13:56:01;;;;;;;40.88;17.10;;;;;;;;;;5081572;28;20091;-85
2023/01/22 13:58:31;;;;;;;18.38;10.05;;;;;;;;;;5116142;28;20491;-85
2023/01/22 14:00:57;;;;;;;20.92;11.32;;;;;;;;;;5097686;28;20032;-85
2023/01/22 14:03:25;;;;;;;37.45;19.25;;;;;;;;;;5116752;28;20027;-85
2023/01/22 14:06:05;;;;;;;19.77;10.45;;;;;;;;;;5115261;28;20047;-87
2023/01/22 14:08:30;;;;;;;26.13;13.73;;;;;;;;;;5097793;28;20035;-85
2023/01/22 14:10:58;;;;;;;21.38;10.77;;;;;;;;;;5115308;28;20023;-84
2023/01/22 14:13:24;;;;;;;21.90;11.73;;;;;;;;;;5117063;28;20028;-85
2023/01/22 14:16:05;;;;;;;20.38;10.45;;;;;;;;;;5116908;28;20089;-85
2023/01/22 14:18:31;;;;;;;17.77;10.10;;;;;;;;;;5116163;28;20483;-87
2023/01/22 14:20:56;;;;;;;22.70;13.40;;;;;;;;;;5115155;28;20034;-85
2023/01/22 14:23:22;;;;;;;23.08;13.40;;;;;;;;;;5114236;28;20058;-86
2023/01/22 14:25:50;;;;;;;48.88;26.35;;;;;;;;;;5122151;28;20035;-85
2023/01/22 14:28:16;;;;;;;19.25;10.32;;;;;;;;;;5116679;28;20404;-86
2023/01/22 14:30:41;;;;;;;19.95;10.38;;;;;;;;;;5096796;28;20472;-86
2023/01/22 14:33:17;;;;;;;19.52;10.80;;;;;;;;;;5115794;28;20402;-86
2023/01/22 14:35:42;;;;;;;17.45;9.93;;;;;;;;;;5097968;28;20051;-87
2023/01/22 14:38:08;;;;;;;21.05;11.15;;;;;;;;;;5098084;28;20074;-87
2023/01/22 14:40:34;;;;;;;25.15;14.35;;;;;;;;;;5116792;28;20049;-86
2023/01/22 14:43:00;;;;;;;22.02;12.18;;;;;;;;;;5098583;28;20032;-87
2023/01/22 14:45:26;;;;;;;25.77;16.38;;;;;;;;;;5115769;28;20035;-86
2023/01/22 14:47:52;;;;;;;18.45;10.20;;;;;;;;;;5122510;28;20461;-86
2023/01/22 14:50:19;;;;;;;17.83;10.35;;;;;;;;;;5096941;28;20040;-86